Etusivu
METAR-TAF:

METAR-TAF

Lentoasemat :

Jyväskylän lentoasema

Jyväskylä, Suomi

Leveyspiiri: 62-24N, Pituuspiiri: 025-41E, korkeus merenpinnasta: 141 m

Tämänhetkinen sää

Tämä raportti tehtiin 34 minuuttia sitten, kello 08.50 UTC
Tuuli 4 kn etelästä, vaihdellen kaakon ja lounaan välillä
Lämpötila 16°C
Kosteus 63%
Ilmanpaine 1013 hPa
Näkyvyys 10 km tai enemmän
Muutamia pilviä 2900 ft:n korkeudessa
sadekuuroja näköpiirissä

METAR: EFJY 130850Z AUTO 18004KT 130V230 9999 VCSH FEW029 //////CB 16/09 Q1013

Aika: 12:24 (09:24 UTC)


TAF: puuttuu

Säähavainnot ja -ennusteet yli 4000 lentoasemalta (METAR- ja TAF-raportit).

Käytössä olevat sääasemat on merkitty karttaan keltaisilla ja punaisilla pisteillä.

Aseta hiiri pisteen päälle nähdäksesi sääaseman nimen.

Klikkaa sitten nähdäksesi säähavainnot ja -ennusteet.

Kartan vaihtaminen: klikkaa mustalla rastilla varustettuja vihreitä pisteitä, niin voit zoomata sisään; viivalla varustettua vihreää pistettä, niin voit zoomata ulos tai vihreitä nuolia, niin pääset viereisille kartoille.


METAR-TAF: